createdAt,value
2022-09-10T00:01:10.357Z,5.47
2022-09-10T00:03:37.233Z,4.10
2022-09-10T00:06:05.539Z,3.95
2022-09-10T00:08:34.268Z,4.28
2022-09-10T00:11:09.552Z,3.67
2022-09-10T00:13:39.251Z,4.32
2022-09-10T00:16:09.635Z,3.35
2022-09-10T00:18:37.443Z,4.00
2022-09-10T00:21:11.983Z,6.05
2022-09-10T00:23:39.916Z,5.50
2022-09-10T00:26:19.601Z,6.70
2022-09-10T00:28:46.650Z,4.68
2022-09-10T00:31:14.485Z,10.00
2022-09-10T00:33:41.977Z,5.75
2022-09-10T00:36:24.539Z,3.42
2022-09-10T00:38:54.992Z,4.85
2022-09-10T00:41:24.819Z,5.90
2022-09-10T00:44:03.868Z,5.10
2022-09-10T00:46:44.944Z,5.43
2022-09-10T00:49:20.383Z,5.80
2022-09-10T00:51:50.923Z,3.58
2022-09-10T00:54:20.290Z,9.00
2022-09-10T00:56:49.737Z,4.53
2022-09-10T00:59:20.270Z,4.25
2022-09-10T01:01:49.321Z,3.65
2022-09-10T01:04:16.762Z,4.88
2022-09-10T01:06:45.766Z,5.82
2022-09-10T01:09:14.552Z,6.43
2022-09-10T01:12:20.419Z,6.05
2022-09-10T01:15:10.329Z,4.97
2022-09-10T01:18:03.606Z,5.25
2022-09-10T01:20:59.651Z,7.25
2022-09-10T01:23:41.539Z,4.88
2022-09-10T01:26:38.944Z,8.00
2022-09-10T01:29:16.630Z,4.32
2022-09-10T01:31:54.211Z,6.97
2022-09-10T01:34:32.947Z,8.77
2022-09-10T01:37:14.376Z,4.93
2022-09-10T01:39:42.289Z,8.65
2022-09-10T01:42:09.563Z,5.88
2022-09-10T01:44:52.248Z,8.05
2022-09-10T01:48:01.051Z,5.88
2022-09-10T01:50:49.104Z,6.07
2022-09-10T01:53:34.816Z,9.57
2022-09-10T01:56:28.339Z,7.53
2022-09-10T01:59:06.127Z,10.30
2022-09-10T02:01:49.073Z,9.40
2022-09-10T02:04:19.870Z,7.95
2022-09-10T02:06:50.077Z,7.20
2022-09-10T02:09:19.370Z,9.40
2022-09-10T02:11:49.992Z,8.27
2022-09-10T02:14:36.099Z,7.53
2022-09-10T02:17:24.409Z,4.82
2022-09-10T02:19:52.421Z,5.72
2022-09-10T02:22:23.427Z,9.43
2022-09-10T02:27:18.982Z,5.70
2022-09-10T02:29:45.982Z,6.35
2022-09-10T02:32:13.425Z,6.15
2022-09-10T02:34:40.435Z,8.65
2022-09-10T02:37:07.564Z,7.97
2022-09-10T02:39:37.314Z,6.30
2022-09-10T02:42:04.473Z,5.15
2022-09-10T02:44:32.080Z,9.27
2022-09-10T02:47:01.156Z,7.65
2022-09-10T02:49:29.178Z,7.40
2022-09-10T02:51:56.157Z,12.88
2022-09-10T02:54:24.205Z,9.40
2022-09-10T02:56:53.999Z,9.02
2022-09-10T02:59:20.878Z,9.27
2022-09-10T03:01:48.432Z,9.70
2022-09-10T03:04:16.559Z,10.48
2022-09-10T03:06:47.128Z,8.07
2022-09-10T03:09:14.129Z,12.00
2022-09-10T03:11:41.798Z,10.02
2022-09-10T03:14:13.103Z,10.20
2022-09-10T03:16:40.957Z,11.80
2022-09-10T03:19:09.150Z,8.95
2022-09-10T03:21:36.822Z,10.52
2022-09-10T03:24:05.314Z,15.38
2022-09-10T03:26:32.885Z,8.98
2022-09-10T03:29:00.075Z,11.90
2022-09-10T03:31:31.028Z,12.05
2022-09-10T03:33:59.712Z,9.68
2022-09-10T03:36:32.096Z,12.50
2022-09-10T03:38:59.620Z,9.82
2022-09-10T03:41:28.538Z,8.23
2022-09-10T03:43:58.742Z,9.63
2022-09-10T03:46:26.828Z,9.32
2022-09-10T03:48:57.147Z,9.63
2022-09-10T03:51:27.472Z,10.95
2022-09-10T03:53:55.780Z,9.27
2022-09-10T03:56:23.056Z,13.27
2022-09-10T03:58:50.239Z,10.18
2022-09-10T04:01:17.928Z,9.77
2022-09-10T04:03:47.973Z,13.13
2022-09-10T04:06:16.531Z,10.20
2022-09-10T04:08:43.757Z,15.23
2022-09-10T04:11:14.165Z,15.85
2022-09-10T04:13:42.170Z,11.30
2022-09-10T04:16:12.226Z,14.15
2022-09-10T04:18:40.643Z,10.77
2022-09-10T04:21:07.814Z,12.68
2022-09-10T04:23:35.599Z,11.70
2022-09-10T04:26:17.609Z,9.60
2022-09-10T04:28:47.638Z,9.32
2022-09-10T04:31:16.556Z,12.30
2022-09-10T04:33:45.049Z,10.93
2022-09-10T04:36:15.288Z,9.73
2022-09-10T04:38:44.130Z,11.65
2022-09-10T04:41:15.648Z,11.05
2022-09-10T04:43:43.707Z,12.15
2022-09-10T04:46:10.923Z,20.85
2022-09-10T04:48:40.535Z,14.20
2022-09-10T04:51:17.390Z,10.90
2022-09-10T04:53:50.678Z,12.82
2022-09-10T04:56:18.744Z,11.57
2022-09-10T04:58:46.567Z,14.38
2022-09-10T05:01:13.907Z,9.98
2022-09-10T05:03:43.072Z,14.70
2022-09-10T05:06:11.206Z,13.25
2022-09-10T05:08:38.968Z,13.80
2022-09-10T05:11:06.348Z,9.90
2022-09-10T05:13:33.985Z,10.00
2022-09-10T05:16:01.846Z,14.88
2022-09-10T05:18:31.437Z,11.45
2022-09-10T05:21:00.930Z,10.52
2022-09-10T05:23:28.963Z,15.02
2022-09-10T05:25:58.623Z,12.07
2022-09-10T05:28:27.046Z,11.57
2022-09-10T05:30:54.150Z,9.82
2022-09-10T05:33:23.663Z,9.75
2022-09-10T05:35:53.788Z,8.95
2022-09-10T05:38:22.225Z,9.13
2022-09-10T05:40:50.960Z,8.68
2022-09-10T05:43:18.803Z,9.63
2022-09-10T05:45:46.045Z,10.70
2022-09-10T05:48:14.376Z,8.32
2022-09-10T05:50:41.571Z,10.48
2022-09-10T05:53:09.810Z,9.70
2022-09-10T05:55:37.795Z,7.55
2022-09-10T05:58:06.293Z,9.57
2022-09-10T06:00:36.555Z,9.88
2022-09-10T06:03:05.986Z,7.68
2022-09-10T06:05:51.397Z,8.88
2022-09-10T06:08:23.492Z,6.65
2022-09-10T06:11:00.586Z,7.32
2022-09-10T06:13:32.689Z,7.45
2022-09-10T06:16:00.367Z,13.23
2022-09-10T06:18:31.011Z,7.25
2022-09-10T06:21:06.866Z,7.25
2022-09-10T06:23:36.146Z,7.28
2022-09-10T06:26:10.406Z,9.50
2022-09-10T06:28:39.658Z,6.43
2022-09-10T06:31:08.544Z,5.38
2022-09-10T06:33:37.851Z,6.78
2022-09-10T06:36:06.460Z,9.43
2022-09-10T06:38:34.225Z,5.78
2022-09-10T06:41:05.982Z,9.32
2022-09-10T06:43:41.765Z,7.50
2022-09-10T06:49:21.741Z,4.73
2022-09-10T06:51:52.132Z,8.38
2022-09-10T06:54:19.522Z,6.30
2022-09-10T06:56:49.155Z,6.20
2022-09-10T06:59:18.751Z,8.05
2022-09-10T07:01:49.583Z,5.20
2022-09-10T07:04:17.998Z,4.35
2022-09-10T07:06:46.053Z,6.53
2022-09-10T07:09:16.986Z,6.53
2022-09-10T07:11:54.773Z,3.78
2022-09-10T07:14:22.095Z,6.82
2022-09-10T07:16:51.501Z,5.05
2022-09-10T07:19:20.632Z,8.40
2022-09-10T07:21:48.133Z,3.30
2022-09-10T07:24:16.916Z,5.70
2022-09-10T07:26:57.025Z,3.08
2022-09-10T07:29:24.474Z,6.50
2022-09-10T07:31:52.922Z,5.05
2022-09-10T07:34:23.759Z,2.60
2022-09-10T07:36:51.009Z,6.45
2022-09-10T07:39:24.926Z,4.97
2022-09-10T07:41:53.490Z,3.45
2022-09-10T07:44:25.172Z,2.00
2022-09-10T07:46:55.524Z,5.90
2022-09-10T07:49:22.651Z,2.75
2022-09-10T07:51:57.684Z,4.45
2022-09-10T07:54:30.445Z,8.35
2022-09-10T07:56:58.245Z,3.30
2022-09-10T07:59:27.012Z,5.55
2022-09-10T08:02:01.734Z,3.53
2022-09-10T08:04:37.072Z,6.82
2022-09-10T08:07:07.853Z,3.92
2022-09-10T08:09:37.882Z,4.55
2022-09-10T08:12:07.866Z,5.70
2022-09-10T08:14:36.860Z,4.88
2022-09-10T08:17:04.575Z,1.77
2022-09-10T08:19:36.727Z,4.05
2022-09-10T08:22:04.641Z,2.88
2022-09-10T08:24:39.080Z,3.03
2022-09-10T08:27:06.310Z,2.25
2022-09-10T08:29:36.184Z,5.05
2022-09-10T08:32:03.505Z,2.45
2022-09-10T08:34:31.923Z,5.45
2022-09-10T08:37:06.806Z,2.40
2022-09-10T08:39:35.552Z,2.15
2022-09-10T08:42:15.329Z,1.30
2022-09-10T08:45:06.439Z,4.55
2022-09-10T08:47:49.373Z,8.55
2022-09-10T08:50:20.240Z,6.30
2022-09-10T08:55:31.558Z,3.53
2022-09-10T08:58:07.458Z,6.68
2022-09-10T09:00:39.264Z,2.72
2022-09-10T09:03:40.461Z,5.35
2022-09-10T09:06:29.347Z,3.25
2022-09-10T09:09:01.124Z,4.18
2022-09-10T09:11:54.867Z,4.55
2022-09-10T09:14:39.946Z,2.05
2022-09-10T09:17:22.312Z,3.45
2022-09-10T09:20:05.166Z,11.82
2022-09-10T09:22:44.486Z,5.80
2022-09-10T09:25:31.935Z,4.47
2022-09-10T09:28:00.698Z,5.53
2022-09-10T09:30:49.613Z,3.17
2022-09-10T09:33:22.673Z,5.45
2022-09-10T09:36:03.128Z,2.83
2022-09-10T09:38:41.366Z,3.90
2022-09-10T09:41:20.178Z,4.45
2022-09-10T09:44:03.422Z,5.75
2022-09-10T09:46:34.447Z,2.40
2022-09-10T09:49:07.109Z,3.95
2022-09-10T09:51:36.549Z,3.78
2022-09-10T09:54:46.503Z,4.20
2022-09-10T09:57:02.888Z,2.83
2022-09-10T09:59:35.016Z,1.92
2022-09-10T10:02:14.907Z,6.13
2022-09-10T10:04:54.386Z,5.32
2022-09-10T10:07:33.163Z,5.57
2022-09-10T10:10:01.760Z,2.95
2022-09-10T10:12:31.682Z,7.13
2022-09-10T10:14:59.947Z,4.50
2022-09-10T10:17:26.883Z,3.20
2022-09-10T10:20:15.416Z,1.65
2022-09-10T10:22:44.620Z,2.22
2022-09-10T10:25:36.269Z,4.57
2022-09-10T10:28:03.971Z,6.63
2022-09-10T10:30:32.157Z,3.50
2022-09-10T10:33:01.846Z,3.20
2022-09-10T10:35:39.168Z,2.80
2022-09-10T10:38:28.230Z,2.80
2022-09-10T10:41:27.991Z,2.75
2022-09-10T10:44:13.372Z,3.33
2022-09-10T10:46:50.031Z,4.30
2022-09-10T10:49:35.695Z,3.88
2022-09-10T10:52:24.491Z,4.32
2022-09-10T10:54:54.187Z,5.97
2022-09-10T10:57:39.136Z,5.78
2022-09-10T11:00:13.041Z,4.55
2022-09-10T11:02:43.070Z,3.00
2022-09-10T11:05:31.773Z,4.15
2022-09-10T11:08:28.263Z,3.55
2022-09-10T11:11:11.413Z,5.82
2022-09-10T11:14:20.084Z,6.25
2022-09-10T11:16:58.549Z,6.32
2022-09-10T11:19:44.820Z,1.77
2022-09-10T11:22:18.394Z,5.25
2022-09-10T11:24:56.556Z,3.58
2022-09-10T11:27:49.930Z,2.55
2022-09-10T11:30:19.241Z,1.70
2022-09-10T11:33:08.534Z,2.08
2022-09-10T11:35:47.413Z,2.38
2022-09-10T11:39:07.538Z,2.67
2022-09-10T11:41:42.193Z,1.20
2022-09-10T11:44:37.810Z,2.00
2022-09-10T11:47:07.954Z,1.55
2022-09-10T11:49:58.274Z,2.30
2022-09-10T11:52:28.202Z,2.45
2022-09-10T11:54:57.376Z,1.13
2022-09-10T11:57:24.542Z,5.65
2022-09-10T12:00:09.217Z,2.38
2022-09-10T12:03:13.909Z,1.40
2022-09-10T12:06:00.092Z,3.85
2022-09-10T12:09:05.353Z,2.40
2022-09-10T12:11:40.854Z,0.80
2022-09-10T12:14:15.178Z,3.30
2022-09-10T12:16:55.863Z,2.67
2022-09-10T12:19:34.636Z,1.75
2022-09-10T12:22:06.181Z,1.48
2022-09-10T12:24:41.737Z,1.63
2022-09-10T12:27:18.955Z,1.23
2022-09-10T12:29:46.404Z,3.45
2022-09-10T12:32:22.005Z,2.78
2022-09-10T12:35:09.139Z,2.83
2022-09-10T12:37:36.179Z,1.13
2022-09-10T12:40:49.898Z,4.20
2022-09-10T12:43:42.424Z,3.53
2022-09-10T12:46:09.913Z,2.08
2022-09-10T12:48:41.522Z,3.10
2022-09-10T12:54:21.960Z,2.45
2022-09-10T12:57:16.792Z,4.65
2022-09-10T13:00:05.851Z,6.95
2022-09-10T13:02:37.776Z,2.63
2022-09-10T13:05:19.296Z,3.70
2022-09-10T13:07:49.332Z,7.10
2022-09-10T13:10:27.876Z,2.35
2022-09-10T13:13:08.050Z,4.30
2022-09-10T13:15:38.997Z,11.65
2022-09-10T13:18:23.042Z,4.47
2022-09-10T13:20:50.056Z,2.92
2022-09-10T13:23:19.253Z,4.25
2022-09-10T13:25:48.187Z,4.65
2022-09-10T13:28:30.232Z,4.53
2022-09-10T13:31:09.067Z,3.45
2022-09-10T13:33:52.158Z,2.78
2022-09-10T13:36:56.021Z,2.00
2022-09-10T13:39:42.084Z,3.17
2022-09-10T13:42:50.738Z,4.78
2022-09-10T13:45:33.789Z,3.30
2022-09-10T13:48:08.317Z,5.10
2022-09-10T13:50:45.051Z,3.35
2022-09-10T13:53:16.240Z,5.20
2022-09-10T13:56:14.079Z,5.10
2022-09-10T13:58:49.763Z,3.00
2022-09-10T14:01:17.859Z,4.18
2022-09-10T14:03:48.056Z,3.55
2022-09-10T14:06:23.978Z,4.93
2022-09-10T14:08:56.058Z,3.05
2022-09-10T14:11:30.091Z,3.28
2022-09-10T14:14:10.602Z,1.85
2022-09-10T14:16:44.581Z,1.77
2022-09-10T14:19:19.442Z,2.72
2022-09-10T14:21:53.543Z,1.50
2022-09-10T14:24:33.547Z,1.35
2022-09-10T14:27:15.810Z,2.45
2022-09-10T14:29:46.666Z,3.60
2022-09-10T14:32:27.342Z,1.33
2022-09-10T14:34:54.703Z,2.67
2022-09-10T14:37:40.193Z,1.25
2022-09-10T14:40:17.408Z,1.85
2022-09-10T14:42:46.016Z,1.73
2022-09-10T14:45:42.226Z,2.10
2022-09-10T14:48:27.876Z,1.08
2022-09-10T14:51:32.611Z,2.13
2022-09-10T14:53:59.627Z,2.28
2022-09-10T14:56:31.240Z,1.88
2022-09-10T15:01:29.448Z,3.00
2022-09-10T15:03:57.451Z,4.55
2022-09-10T15:06:26.605Z,4.88
2022-09-10T15:08:56.173Z,2.55
2022-09-10T15:11:27.330Z,2.40
2022-09-10T15:13:56.066Z,5.47
2022-09-10T15:16:23.483Z,4.00
2022-09-10T15:18:50.818Z,4.35
2022-09-10T15:21:19.359Z,5.45
2022-09-10T15:23:48.265Z,2.83
2022-09-10T15:26:15.351Z,5.28
2022-09-10T15:28:42.448Z,3.22
2022-09-10T15:31:10.789Z,3.67
2022-09-10T15:33:38.328Z,0.77
2022-09-10T15:36:06.230Z,1.20
2022-09-10T15:38:33.236Z,2.40
2022-09-10T15:41:09.626Z,4.22
2022-09-10T15:43:39.889Z,1.25
2022-09-10T15:46:07.453Z,1.05
2022-09-10T15:48:35.144Z,0.93
2022-09-10T15:51:10.149Z,0.70
2022-09-10T15:53:39.527Z,1.08
2022-09-10T15:56:08.003Z,2.50
2022-09-10T15:58:36.302Z,1.60
2022-09-10T16:01:04.536Z,0.88
2022-09-10T16:03:32.298Z,1.65
2022-09-10T16:06:01.273Z,2.10
2022-09-10T16:08:28.572Z,3.45
2022-09-10T16:10:55.645Z,4.38
2022-09-10T16:13:22.763Z,1.95
2022-09-10T16:16:04.123Z,2.92
2022-09-10T16:18:32.655Z,2.55
2022-09-10T16:21:11.656Z,1.80
2022-09-10T16:23:40.623Z,1.10
2022-09-10T16:26:09.558Z,1.15
2022-09-10T16:28:37.340Z,1.30
2022-09-10T16:31:16.253Z,1.92
2022-09-10T16:33:43.668Z,1.98
2022-09-10T16:36:10.949Z,2.90
2022-09-10T16:38:38.438Z,2.58
2022-09-10T16:41:06.818Z,2.17
2022-09-10T16:43:37.052Z,2.53
2022-09-10T16:46:06.155Z,1.92
2022-09-10T16:48:34.356Z,1.13
2022-09-10T16:51:06.497Z,1.63
2022-09-10T16:53:36.506Z,1.58
2022-09-10T16:56:07.020Z,1.85
2022-09-10T16:58:36.074Z,2.78
2022-09-10T17:01:06.138Z,3.55
2022-09-10T17:03:33.085Z,1.67
2022-09-10T17:06:00.250Z,0.45
2022-09-10T17:08:29.298Z,0.80
2022-09-10T17:10:56.796Z,1.00
2022-09-10T17:13:23.820Z,1.00
2022-09-10T17:15:50.834Z,0.70
2022-09-10T17:18:17.782Z,1.10
2022-09-10T17:20:44.856Z,2.28
2022-09-10T17:23:13.441Z,4.75
2022-09-10T17:25:40.418Z,1.35
2022-09-10T17:28:07.688Z,2.83
2022-09-10T17:30:34.696Z,1.05
2022-09-10T17:33:01.547Z,1.33
2022-09-10T17:35:28.558Z,0.47
2022-09-10T17:37:55.432Z,1.38
2022-09-10T17:40:24.011Z,3.35
2022-09-10T17:42:50.914Z,0.93
2022-09-10T17:45:19.399Z,4.72
2022-09-10T17:47:46.316Z,2.10
2022-09-10T17:50:13.331Z,1.35
2022-09-10T17:52:40.695Z,2.22
2022-09-10T17:55:07.964Z,2.88
2022-09-10T17:57:35.663Z,1.40
2022-09-10T18:00:03.040Z,4.82
2022-09-10T18:02:31.553Z,1.48
2022-09-10T18:04:58.944Z,1.90
2022-09-10T18:07:25.765Z,3.92
2022-09-10T18:09:53.333Z,2.35
2022-09-10T18:12:20.318Z,2.45
2022-09-10T18:14:47.149Z,1.85
2022-09-10T18:17:14.232Z,3.97
2022-09-10T18:19:41.229Z,1.92
2022-09-10T18:22:08.155Z,2.95
2022-09-10T18:24:35.015Z,1.83
2022-09-10T18:27:04.780Z,1.17
2022-09-10T18:29:31.981Z,2.00
2022-09-10T18:32:03.063Z,2.47
2022-09-10T18:34:31.229Z,3.67
2022-09-10T18:37:00.674Z,4.07
2022-09-10T18:39:30.040Z,1.95
2022-09-10T18:41:57.570Z,3.03
2022-09-10T18:44:27.502Z,2.13
2022-09-10T18:46:54.669Z,2.15
2022-09-10T18:49:24.371Z,2.15
2022-09-10T18:51:52.297Z,2.15
2022-09-10T18:54:21.255Z,4.53
2022-09-10T18:56:49.416Z,6.68
2022-09-10T18:59:20.263Z,2.42
2022-09-10T19:01:49.468Z,4.15
2022-09-10T19:04:20.206Z,2.80
2022-09-10T19:06:48.791Z,4.73
2022-09-10T19:09:24.607Z,1.15
2022-09-10T19:11:55.799Z,2.17
2022-09-10T19:14:42.686Z,3.28
2022-09-10T19:17:09.945Z,2.38
2022-09-10T19:19:37.367Z,6.18
2022-09-10T19:22:10.704Z,2.33
2022-09-10T19:24:54.056Z,2.40
2022-09-10T19:27:22.303Z,5.13
2022-09-10T19:29:50.673Z,4.43
2022-09-10T19:32:20.045Z,5.05
2022-09-10T19:34:56.486Z,2.13
2022-09-10T19:37:24.332Z,2.40
2022-09-10T19:39:51.889Z,3.35
2022-09-10T19:42:21.180Z,3.72
2022-09-10T19:44:48.180Z,3.63
2022-09-10T19:47:15.365Z,4.47
2022-09-10T19:49:43.524Z,3.45
2022-09-10T19:52:11.154Z,5.68
2022-09-10T19:54:38.786Z,3.28
2022-09-10T19:57:05.946Z,5.75
2022-09-10T19:59:33.150Z,7.90
2022-09-10T20:02:00.988Z,5.70
2022-09-10T20:04:29.694Z,5.22
2022-09-10T20:06:56.826Z,3.83
2022-09-10T20:09:24.602Z,4.53
2022-09-10T20:11:51.781Z,5.55
2022-09-10T20:14:21.280Z,4.65
2022-09-10T20:16:48.315Z,4.60
2022-09-10T20:19:23.495Z,7.07
2022-09-10T20:21:50.460Z,3.35
2022-09-10T20:24:18.588Z,3.30
2022-09-10T20:26:46.624Z,3.03
2022-09-10T20:29:18.448Z,2.92
2022-09-10T20:31:47.018Z,2.50
2022-09-10T20:34:19.849Z,4.10
2022-09-10T20:36:48.217Z,3.13
2022-09-10T20:39:19.140Z,12.50
2022-09-10T20:41:46.883Z,6.63
2022-09-10T20:44:16.747Z,7.35
2022-09-10T20:46:44.274Z,5.88
2022-09-10T20:49:13.309Z,5.38
2022-09-10T20:51:41.427Z,16.98
2022-09-10T20:54:12.039Z,5.70
2022-09-10T20:56:40.185Z,4.50
2022-09-10T20:59:07.427Z,4.80
2022-09-10T21:01:34.741Z,6.68
2022-09-10T21:04:02.996Z,4.28
2022-09-10T21:06:32.616Z,6.43
2022-09-10T21:09:00.909Z,4.75
2022-09-10T21:11:30.995Z,5.70
2022-09-10T21:14:00.392Z,7.28
2022-09-10T21:16:32.542Z,6.18
2022-09-10T21:19:09.235Z,3.90
2022-09-10T21:21:39.638Z,5.28
2022-09-10T21:24:19.500Z,5.68
2022-09-10T21:26:47.314Z,5.45
2022-09-10T21:29:20.008Z,8.50
2022-09-10T21:31:50.224Z,4.22
2022-09-10T21:34:17.544Z,7.03
2022-09-10T21:36:45.223Z,4.95
2022-09-10T21:39:14.585Z,3.75
2022-09-10T21:41:50.251Z,5.07
2022-09-10T21:44:19.917Z,7.80
2022-09-10T21:46:48.337Z,6.80
2022-09-10T21:49:15.934Z,5.70
2022-09-10T21:51:43.364Z,6.60
2022-09-10T21:54:15.208Z,6.97
2022-09-10T21:56:42.164Z,5.88
2022-09-10T21:59:12.084Z,6.63
2022-09-10T22:01:40.856Z,4.88
2022-09-10T22:04:08.868Z,5.53
2022-09-10T22:06:38.831Z,8.13
2022-09-10T22:09:14.368Z,5.82
2022-09-10T22:11:46.979Z,5.93
2022-09-10T22:14:15.227Z,4.90
2022-09-10T22:16:42.920Z,8.93
2022-09-10T22:19:14.212Z,6.25
2022-09-10T22:21:41.209Z,7.55
2022-09-10T22:24:11.235Z,8.48
2022-09-10T22:26:44.342Z,10.82
2022-09-10T22:29:12.563Z,6.53
2022-09-10T22:31:39.537Z,5.90
2022-09-10T22:34:10.566Z,8.88
2022-09-10T22:36:39.483Z,7.53
2022-09-10T22:39:10.185Z,8.30
2022-09-10T22:41:37.891Z,7.78
2022-09-10T22:44:05.846Z,8.15
2022-09-10T22:46:33.374Z,6.07
2022-09-10T22:49:01.204Z,7.50
2022-09-10T22:51:31.613Z,7.60
2022-09-10T22:53:59.140Z,6.88
2022-09-10T22:56:27.189Z,8.10
2022-09-10T22:58:56.145Z,7.28
2022-09-10T23:01:29.422Z,8.50
2022-09-10T23:03:58.318Z,7.47
2022-09-10T23:06:28.322Z,9.95
2022-09-10T23:08:58.128Z,8.88
2022-09-10T23:11:30.518Z,10.63
2022-09-10T23:14:03.741Z,6.80
2022-09-10T23:16:36.426Z,7.95
2022-09-10T23:19:06.079Z,9.05
2022-09-10T23:21:34.061Z,7.38
2022-09-10T23:24:04.080Z,8.45
2022-09-10T23:26:31.822Z,9.05
2022-09-10T23:29:03.421Z,8.35
2022-09-10T23:31:32.787Z,8.52
2022-09-10T23:34:05.576Z,7.55
2022-09-10T23:36:45.197Z,10.68
2022-09-10T23:39:25.281Z,6.95
2022-09-10T23:41:55.045Z,11.57
2022-09-10T23:44:22.029Z,13.02
2022-09-10T23:46:49.274Z,8.77
2022-09-10T23:49:16.536Z,7.78
2022-09-10T23:51:43.692Z,10.13
2022-09-10T23:54:11.362Z,8.82
2022-09-10T23:56:39.584Z,10.70
2022-09-10T23:59:06.578Z,8.38
